Data for 08/08/2005

Time Sea-Level Adjusted Pressure Absolute Pressure Temperature Relative Humidity Dew Point   
(mb) (inHg) (mb) (inHg) (C) (F) (%) (C) (F)
00:05 1020 30.12 849 25.07 20.3 68.6 49 9.3 48.8
00:10 1020 30.12 849 25.07 20.6 69.2 50 10.1 50.1
00:15 1020 30.12 849 25.07 20.6 69 47 9.1 48.4
00:20 1020 30.12 849 25.07 20.6 69.2 48 9.5 49.1
00:25 1020 30.12 849 25.07 20.6 69 46 8.7 47.6
00:30 1020 30.12 849 25.07 20.4 68.7 50 9.8 49.6
00:35 1020 30.12 849 25.07 20 68.1 46 8.3 47
00:40 1020 30.12 849 25.07 20.8 69.4 47 9.1 48.4
00:45 1020 30.12 849 25.07 21.3 70.4 41 7.8 46.1
00:50 1020 30.12 849 25.07 21.3 70.4 42 8.1 46.6
00:55 1020 30.12 849 25.07 21.3 70.3 43 8.2 46.8
01:00 1020 30.12 849 25.07 21.2 70.2 43 8.2 46.8
01:05 1019 30.09 849 25.07 21.1 69.9 46 9.1 48.4
01:10 1020 30.12 849 25.07 20.5 69 45 8.2 46.8
01:15 1020 30.12 849 25.07 20.7 69.2 43 7.9 46.3
01:20 1020 30.12 849 25.07 20.9 69.5 45 8.7 47.6
01:25 1020 30.12 849 25.07 20.7 69.3 45 8.4 47.2
01:30 1020 30.12 849 25.07 21 69.8 40 7.1 44.8
01:35 1020 30.12 849 25.07 21.6 70.8 47 9.8 49.6
01:40 1020 30.12 849 25.07 21.1 70 44 8.4 47.1
01:45 1020 30.12 849 25.07 21.1 69.9 44 8.6 47.4
01:50 1020 30.12 849 25.07 20.9 69.7 42 7.7 45.8
01:55 1020 30.12 849 25.07 21.5 70.8 39 7.3 45.2
02:00 1019 30.09 849 25.07 21.8 71.3 38 7.2 45
02:05 1019 30.09 849 25.07 21.8 71.3 39 7.4 45.3
02:10 1019 30.09 849 25.07 21.8 71.2 39 7.3 45.2
02:15 1019 30.09 848 25.04 21.5 70.6 42 8.1 46.6
02:20 1019 30.09 848 25.04 21.1 69.9 42 8 46.4
02:25 1019 30.09 848 25.04 21.1 70 42 7.9 46.2
02:30 1019 30.09 848 25.04 20.9 69.6 43 8.1 46.6
02:35 1019 30.09 848 25.04 20.6 69.1 45 8.5 47.3
02:40 1019 30.09 848 25.04 20.5 68.8 45 8.1 46.6
02:45 1019 30.09 848 25.04 20.3 68.5 47 8.7 47.6
02:50 1019 30.09 848 25.04 20.3 68.5 45 8.1 46.5
02:55 1019 30.09 848 25.04 20.4 68.8 46 8.5 47.4
03:00 1019 30.09 848 25.04 20.2 68.3 46 8.2 46.8
03:05 1019 30.09 848 25.04 20.3 68.6 46 8.3 47
03:10 1019 30.09 848 25.04 20.1 68.2 47 8.7 47.6
03:15 1019 30.09 848 25.04 19.9 67.9 48 8.7 47.6
03:20 1019 30.09 848 25.04 19.9 67.8 47 8.4 47.2
03:25 1019 30.09 848 25.04 20 67.9 47 8.3 47
03:30 1019 30.09 848 25.04 20 67.9 47 8.4 47.2
03:35 1019 30.09 848 25.04 19.7 67.5 49 8.9 48
03:40 1019 30.09 848 25.04 19.5 67.2 48 8.3 46.9
03:45 1019 30.09 848 25.04 19.8 67.6 46 8 46.4
03:50 1018 30.06 848 25.04 19.9 67.8 45 7.7 45.9
03:55 1018 30.06 848 25.04 20.2 68.4 45 7.9 46.2
04:00 1019 30.09 848 25.04 20.2 68.3 45 7.9 46.1
04:05 1019 30.09 848 25.04 20 68 45 7.8 46
04:10 1019 30.09 848 25.04 20 68 44 7.5 45.6
04:15 1019 30.09 848 25.04 20.2 68.3 43 7.2 45
04:20 1019 30.09 848 25.04 20.3 68.6 42 7.1 44.7
04:25 1019 30.09 848 25.04 20.4 68.7 42 7.1 44.8
04:30 1019 30.09 848 25.04 20.4 68.6 46 8.4 47.1
04:35 1019 30.09 848 25.04 20 68 45 7.9 46.2
04:40 1019 30.09 848 25.04 19.5 67.1 48 8.4 47.2
04:45 1019 30.09 848 25.04 19 66.2 55 9.9 49.8
04:50 1019 30.09 848 25.04 18.5 65.4 52 8.7 47.6
04:55 1019 30.09 848 25.04 18.3 65 54 9 48.3
05:00 1019 30.09 848 25.04 17.9 64.2 56 9 48.2
05:05 1019 30.09 848 25.04 17.9 64.2 55 8.8 47.8
05:10 1019 30.09 848 25.04 18.1 64.5 54 8.6 47.6
05:15 1019 30.09 848 25.04 18.1 64.6 54 8.8 47.8
05:20 1019 30.09 848 25.04 18.2 64.7 51 8 46.4
05:25 1019 30.09 848 25.04 18.6 65.5 48 7.4 45.4
05:30 1019 30.09 848 25.04 18.8 65.8 49 8 46.4
05:35 1019 30.09 848 25.04 18.5 65.3 51 8.2 46.8
05:40 1019 30.09 848 25.04 18.4 65 51 8 46.4
05:45 1019 30.09 848 25.04 18.3 64.9 53 8.6 47.4
05:50 1019 30.09 848 25.04 17.9 64.2 56 9.1 48.4
05:55 1020 30.12 849 25.07 17.6 63.6 59 9.7 49.4
06:00 1020 30.12 849 25.07 17.3 63.1 60 9.5 49.2
06:05 1020 30.12 849 25.07 17.5 63.4 60 9.8 49.6
06:10 1020 30.12 849 25.07 17.6 63.7 58 9.2 48.6
06:15 1020 30.12 849 25.07 17.6 63.7 57 9.1 48.5
06:20 1020 30.12 849 25.07 17.5 63.5 60 9.7 49.4
06:25 1020 30.12 849 25.07 17.6 63.6 58 9.4 48.9
06:30 1020 30.12 849 25.07 17.6 63.7 60 10 49.9
06:35 1020 30.12 849 25.07 17.2 62.9 61 9.8 49.6
06:40 1020 30.12 849 25.07 16.9 62.4 64 10 50.1
06:45 1020 30.12 849 25.07 17 62.5 61 9.5 49.1
06:50 1020 30.12 849 25.07 17.2 63 62 10 50
06:55 1020 30.12 849 25.07 16.8 62.2 63 9.9 49.8
07:00 1019 30.09 849 25.07 16.5 61.8 64 9.9 49.8
07:05 1019 30.09 849 25.07 16.5 61.7 64 9.8 49.6
07:10 1019 30.09 849 25.07 16.5 61.7 61 9.1 48.3
07:15 1019 30.09 849 25.07 16.7 62.1 61 9.3 48.8
07:20 1019 30.09 848 25.04 17 62.6 58 8.7 47.7
07:25 1019 30.09 848 25.04 17.3 63.2 58 9.1 48.3
07:30 1019 30.09 849 25.07 17.6 63.6 56 8.8 47.8
07:35 1019 30.09 849 25.07 18 64.5 56 9.3 48.8
07:40 1019 30.09 849 25.07 18.2 64.8 57 9.5 49.2
07:45 1019 30.09 849 25.07 18.1 64.6 61 10.7 51.2
07:50 1020 30.12 849 25.07 18.3 65 58 10.1 50.1
07:55 1019 30.09 849 25.07 18.1 64.6 58 9.7 49.5
08:00 1019 30.09 849 25.07 18.2 64.8 55 9.2 48.6
08:05 1020 30.12 849 25.07 18.2 64.8 57 9.7 49.4
08:10 1020 30.12 849 25.07 18.3 64.9 56 9.4 48.9
08:15 1020 30.12 849 25.07 18.7 65.7 55 9.7 49.5
08:20 1020 30.12 849 25.07 19.2 66.6 58 11 51.7
08:25 1020 30.12 849 25.07 18.8 65.8 66 12.5 54.5
08:30 1020 30.12 849 25.07 18.3 65 68 12.4 54.3
08:35 1020 30.12 850 25.1 18.3 64.9 68 12.4 54.4
08:40 1021 30.15 850 25.1 18.5 65.3 63 11.5 52.6
08:45 1021 30.15 850 25.1 19.1 66.3 57 10.5 50.9
08:50 1021 30.15 850 25.1 19.3 66.7 60 11.3 52.3
08:55 1021 30.15 850 25.1 19 66.3 62 11.7 53
09:00 1021 30.15 850 25.1 18.8 65.8 61 11.1 52
09:05 1021 30.15 850 25.1 18.9 66 61 11.3 52.3
09:10 1021 30.15 850 25.1 18.8 65.9 64 12 53.7
09:15 1021 30.15 850 25.1 18.4 65.2 66 11.9 53.5
09:20 1021 30.15 851 25.13 18.8 65.8 58 10.4 50.8
09:25 1021 30.15 851 25.13 19.1 66.4 59 11.1 52
09:30 1022 30.18 851 25.13 19.4 66.8 59 11.2 52.1
09:35 1022 30.18 851 25.13 19.6 67.3 54 10.2 50.3
09:40 1022 30.18 851 25.13 19.8 67.6 56 10.8 51.4
09:45 1022 30.18 851 25.13 19.4 66.9 63 12.4 54.3
09:50 1022 30.18 851 25.13 18.6 65.5 70 13 55.5
09:55 1022 30.18 851 25.13 17.8 64.1 73 12.9 55.2
10:00 1022 30.18 851 25.13 17.6 63.7 69 11.9 53.5
10:05 1022 30.18 851 25.13 17.8 64.1 72 12.9 55.2
10:10 1022 30.18 851 25.13 17.9 64.1 76 13.6 56.4
10:15 1022 30.18 851 25.13 17.8 64 73 12.9 55.1
10:20 1022 30.18 851 25.13 17.6 63.7 73 12.8 55.1
10:25 1022 30.18 851 25.13 17.5 63.5 77 13.4 56.2
10:30 1022 30.18 851 25.13 16.8 62.2 81 13.5 56.4
10:35 1022 30.18 851 25.13 16.6 61.9 80 13.2 55.7
10:40 1021 30.15 851 25.13 16.9 62.3 78 13.1 55.5
10:45 1021 30.15 851 25.13 16.7 62.1 82 13.7 56.7
10:50 1022 30.18 851 25.13 16.7 62 83 13.8 56.9
10:55 1021 30.15 851 25.13 16.8 62.2 82 13.7 56.6
11:00 1021 30.15 850 25.1 16.7 62.1 83 13.8 56.8
11:05 1021 30.15 850 25.1 16.8 62.2 81 13.5 56.3
11:10 1021 30.15 850 25.1 16.9 62.5 81 13.8 56.8
11:15 1021 30.15 850 25.1 17.2 62.9 81 13.9 57
11:20 1021 30.15 850 25.1 17.2 63 79 13.6 56.5
11:25 1021 30.15 850 25.1 17.3 63.2 79 13.6 56.5
11:30 1021 30.15 850 25.1 17.5 63.6 78 13.8 56.8
11:35 1021 30.15 850 25.1 17.8 64 76 13.6 56.4
11:40 1021 30.15 850 25.1 18 64.4 75 13.5 56.3
11:45 1021 30.15 850 25.1 18.4 65.1 75 13.9 56.9
11:50 1021 30.15 850 25.1 18.6 65.6 71 13.3 56
11:55 1021 30.15 850 25.1 18.9 66.1 73 14.1 57.3
12:00 1021 30.15 850 25.1 18.9 66 75 14.4 58
12:05 1021 30.15 850 25.1 18.8 65.9 76 14.6 58.2
12:10 1021 30.15 850 25.1 18.8 65.9 78 15 58.9
12:15 1021 30.15 850 25.1 18.9 66 76 14.5 58.2
12:20 1021 30.15 850 25.1 18.9 66 76 14.6 58.2
12:25 1021 30.15 850 25.1 18.9 66.1 76 14.7 58.5
12:30 1021 30.15 850 25.1 19.1 66.4 75 14.6 58.2
12:35 1021 30.15 850 25.1 19.3 66.8 73 14.5 58.1
12:40 1021 30.15 850 25.1 19.6 67.2 72 14.5 58.2
12:45 1021 30.15 850 25.1 19.8 67.7 70 14.3 57.8
12:50 1021 30.15 850 25.1 20.1 68.1 69 14.4 57.9
12:55 1021 30.15 850 25.1 20.1 68.2 69 14.3 57.7
13:00 1021 30.15 851 25.13 20.2 68.4 68 14.2 57.6
13:05 1021 30.15 851 25.13 20.2 68.3 72 14.9 58.9
13:10 1021 30.15 851 25.13 20.1 68.1 70 14.6 58.3
13:15 1021 30.15 850 25.1 19.9 67.9 72 14.9 58.8
13:20 1021 30.15 850 25.1 19.9 67.7 72 14.7 58.5
13:25 1021 30.15 851 25.13 19.9 67.9 72 14.9 58.8
13:30 1021 30.15 851 25.13 20 68 70 14.5 58.1
13:35 1021 30.15 851 25.13 20.1 68.1 71 14.8 58.7
13:40 1022 30.18 851 25.13 20.1 68.1 74 15.4 59.8
13:45 1022 30.18 851 25.13 20.4 68.8 74 15.7 60.2
13:50 1022 30.18 851 25.13 20.6 69.1 72 15.5 60
13:55 1022 30.18 851 25.13 20.7 69.3 66 14.2 57.5
14:00 1022 30.18 851 25.13 20.8 69.4 64 13.7 56.7
14:05 1022 30.18 851 25.13 20.5 69 66 14.1 57.4
14:10 1021 30.15 851 25.13 20.5 68.9 63 13.2 55.8
14:15 1021 30.15 851 25.13 20.7 69.3 68 14.6 58.3
14:20 1021 30.15 851 25.13 20.7 69.3 63 13.6 56.6
14:25 1021 30.15 850 25.1 20.2 68.4 65 13.6 56.5
14:30 1021 30.15 850 25.1 20 67.9 69 14.2 57.5
14:35 1021 30.15 850 25.1 19.9 67.8 68 14 57.1
14:40 1021 30.15 850 25.1 20 68 64 13.1 55.6
14:45 1021 30.15 851 25.13 20.2 68.3 64 13.2 55.8
14:50 1021 30.15 850 25.1 20.4 68.8 61 12.8 55.1
14:55 1021 30.15 850 25.1 20.8 69.5 63 13.5 56.4
15:00 1021 30.15 850 25.1 21 69.7 61 13.4 56.1
15:05 1021 30.15 850 25.1 21 69.9 60 13.1 55.7
15:10 1021 30.15 850 25.1 20.8 69.5 61 13.2 55.7
15:15 1020 30.12 849 25.07 20.8 69.5 60 12.8 55.1
15:20 1020 30.12 849 25.07 20.7 69.2 60 12.9 55.2
15:25 1020 30.12 849 25.07 20.7 69.3 59 12.7 54.8
15:30 1020 30.12 849 25.07 21 69.7 59 12.7 54.9
15:35 1020 30.12 849 25.07 21.3 70.4 57 12.7 54.8
15:40 1020 30.12 849 25.07 21.7 71 56 12.7 54.8
15:45 1020 30.12 849 25.07 22.1 71.8 52 12.1 53.8
15:50 1020 30.12 849 25.07 23.1 73.6 51 12.5 54.5
15:55 1020 30.12 849 25.07 23.5 74.3 49 12.3 54.2
16:00 1020 30.12 849 25.07 23.8 74.8 46 11.5 52.7
16:05 1020 30.12 849 25.07 24.1 75.3 46 11.8 53.2
16:10 1019 30.09 849 25.07 24.7 76.5 40 10.6 51.1
16:15 1019 30.09 849 25.07 25.1 77.1 39 10.2 50.4
16:20 1019 30.09 849 25.07 25.9 78.7 37 10.2 50.4
16:25 1019 30.09 848 25.04 26.2 79.2 35 9.9 49.9
16:30 1019 30.09 848 25.04 27 80.7 33 9.4 49
16:35 1019 30.09 848 25.04 27.2 81 33 9.6 49.3
16:40 1019 30.09 848 25.04 26.6 80 34 9.6 49.3
16:45 1019 30.09 848 25.04 26.7 80 37 10.9 51.6
16:50 1019 30.09 848 25.04 26.1 78.9 37 10.3 50.6
16:55 1019 30.09 848 25.04 25.8 78.4 35 9.5 49.2
17:00 1019 30.09 848 25.04 26 78.8 36 9.9 49.8
17:05 1019 30.09 848 25.04 26.3 79.3 35 9.9 49.8
17:10 1019 30.09 848 25.04 26.4 79.6 38 11.1 51.9
17:15 1019 30.09 848 25.04 25.6 78.1 39 10.9 51.6
17:20 1019 30.09 848 25.04 25.8 78.5 39 11 51.8
17:25 1019 30.09 848 25.04 25.9 78.7 37 10.3 50.6
17:30 1019 30.09 848 25.04 26 78.7 37 10.5 50.9
17:35 1019 30.09 848 25.04 26.4 79.6 32 8.7 47.6
17:40 1019 30.09 848 25.04 26.2 79.2 32 8.4 47
17:45 1019 30.09 848 25.04 25.6 78 35 9.1 48.4
17:50 1019 30.09 848 25.04 25.6 78.2 37 10 50.1
17:55 1019 30.09 848 25.04 25.6 78 39 10.8 51.4
18:00 1019 30.09 848 25.04 25.7 78.2 37 10 49.9
18:05 1019 30.09 848 25.04 25.2 77.3 37 9.8 49.7
18:10 1019 30.09 848 25.04 25.1 77.2 38 9.9 49.8
18:15 1019 30.09 848 25.04 24.9 76.8 40 10.5 50.9
18:20 1019 30.09 849 25.07 24.5 76.1 40 10.3 50.6
18:25 1019 30.09 849 25.07 24.4 76 38 9.5 49.1
18:30 1020 30.12 849 25.07 24.3 75.8 39 9.8 49.7
18:35 1020 30.12 849 25.07 24.3 75.8 39 9.6 49.4
18:40 1020 30.12 849 25.07 24 75.3 42 10.4 50.7
18:45 1020 30.12 849 25.07 22.1 71.7 44 9.3 48.8
18:50 1020 30.12 849 25.07 20.3 68.6 44 7.9 46.3
18:55 1020 30.12 849 25.07 20.1 68.1 44 7.6 45.6
19:00 1020 30.12 849 25.07 20.3 68.6 42 7.3 45.1
19:05 1020 30.12 849 25.07 20.9 69.5 41 7.4 45.4
19:10 1020 30.12 849 25.07 21.2 70.2 42 7.9 46.2
19:15 1020 30.12 849 25.07 21.5 70.7 42 8.3 47
19:20 1020 30.12 849 25.07 21.5 70.7 41 8 46.4
19:25 1020 30.12 849 25.07 21.8 71.2 42 8.5 47.3
19:30 1020 30.12 849 25.07 21.9 71.3 43 8.9 48
19:35 1020 30.12 849 25.07 21.9 71.4 45 9.4 49
19:40 1020 30.12 849 25.07 20.7 69.3 47 9.1 48.3
19:45 1020 30.12 849 25.07 20.7 69.3 48 9.4 49
19:50 1020 30.12 849 25.07 20.3 68.5 49 9.3 48.7
19:55 1020 30.12 849 25.07 20.2 68.4 49 9.4 49
20:00 1020 30.12 849 25.07 20.1 68.2 47 8.5 47.4
20:05 1020 30.12 849 25.07 20.2 68.3 49 9.3 48.7
20:10 1019 30.09 849 25.07 19.9 67.8 50 9.4 49
20:15 1019 30.09 849 25.07 19.6 67.2 50 9.1 48.4
20:20 1019 30.09 849 25.07 19.4 66.9 51 9.1 48.4
20:25 1019 30.09 849 25.07 19.4 67 54 9.9 49.8
20:30 1020 30.12 849 25.07 19.5 67 53 9.8 49.6
20:35 1020 30.12 849 25.07 19.6 67.3 50 9.1 48.3
20:40 1020 30.12 849 25.07 19.8 67.6 54 10.2 50.4
20:45 1020 30.12 849 25.07 19.8 67.6 51 9.5 49.1
20:50 1020 30.12 849 25.07 19.5 67.1 52 9.5 49.1
20:55 1020 30.12 849 25.07 19.4 66.9 52 9.5 49.1
21:00 1020 30.12 849 25.07 19.3 66.8 52 9.2 48.6
21:05 1020 30.12 849 25.07 19.6 67.2 51 9.1 48.4
21:10 1020 30.12 849 25.07 19.6 67.3 52 9.6 49.3
21:15 1021 30.15 850 25.1 19.5 67.1 53 9.8 49.7
21:20 1021 30.15 850 25.1 19.6 67.3 55 10.5 50.9
21:25 1022 30.18 851 25.13 19.6 67.2 57 10.9 51.6
21:30 1022 30.18 851 25.13 19.3 66.8 60 11.4 52.5
21:35 1022 30.18 851 25.13 18.8 65.9 62 11.5 52.6
21:40 1021 30.15 850 25.1 18.4 65.1 65 11.7 53
21:45 1021 30.15 850 25.1 18.4 65.1 59 10.5 50.8
21:50 1021 30.15 850 25.1 18.4 65 57 9.9 49.8
21:55 1021 30.15 850 25.1 19 66.1 56 10.1 50.2
22:00 1021 30.15 850 25.1 18.4 65.1 61 10.8 51.4
22:05 1021 30.15 850 25.1 18.6 65.5 54 9.2 48.6
22:10 1021 30.15 850 25.1 18.6 65.6 56 9.9 49.8
22:15 1020 30.12 849 25.07 18.5 65.3 56 9.7 49.4
22:20 1020 30.12 849 25.07 18.4 65.1 57 9.8 49.6
22:25 1020 30.12 849 25.07 18.4 65.1 57 9.7 49.5
22:30 1020 30.12 849 25.07 18.4 65.2 56 9.7 49.5
22:35 1020 30.12 849 25.07 18.4 65 57 9.8 49.6
22:40 1020 30.12 849 25.07 18.4 65.1 56 9.5 49.1
22:45 1020 30.12 849 25.07 18.6 65.6 55 9.6 49.2
22:50 1020 30.12 849 25.07 18.7 65.7 54 9.3 48.7
22:55 1020 30.12 849 25.07 18.6 65.5 55 9.6 49.3
23:00 1020 30.12 849 25.07 18.5 65.3 58 10.1 50.1
23:05 1020 30.12 850 25.1 18.4 65.2 57 9.8 49.6
23:10 1020 30.12 850 25.1 18.3 65 55 9.1 48.5
23:15 1021 30.15 850 25.1 18.5 65.3 54 9 48.2
23:20 1021 30.15 850 25.1 18.7 65.7 51 8.5 47.3
23:25 1021 30.15 850 25.1 19.2 66.6 50 8.7 47.6
23:30 1021 30.15 850 25.1 19.4 66.9 51 9.1 48.3
23:35 1021 30.15 850 25.1 18.9 66.1 57 10.3 50.5
23:40 1021 30.15 850 25.1 18.3 65 59 10.2 50.3
23:45 1021 30.15 850 25.1 18.2 64.7 58 9.8 49.6
23:50 1021 30.15 850 25.1 18.3 64.9 57 9.7 49.4
23:55 1021 30.15 850 25.1 18.2 64.8 56 9.4 48.9
24:00 1021 30.15 850 25.1 18.2 64.8 59 10 50.1